This is the latest recevied weather packets stored in our database for station/object N9JXN-13. If no packets are shown the sender has not sent any weather packets the latest 10 day(s).
| Time | Temp. | Humidity | Pressure | Rain* | Wind** | Luminosity | Snow |
|---|---|---|---|---|---|---|---|
| 1777242014 | 20.56° C | 57% | 1013.7 hPa | 0 mm | - | 79 W/m² | - |
| 1777240814 | 21.11° C | 57% | 1013.5 hPa | 0 mm | - | 178 W/m² | - |
| 1777239914 | 21.67° C | 57% | 1013.2 hPa | 0 mm | - | 155 W/m² | - |
| 1777238114 | 21.67° C | 55% | 1013 hPa | 0 mm | - | 513 W/m² | - |
| 1777230914 | 20° C | 59% | 1015.2 hPa | 0 mm | - | 698 W/m² | - |
| 1777228214 | 20° C | 61% | 1015.6 hPa | 0 mm | - | 1053 W/m² | - |
| 1777227314 | 19.44° C | 64% | 1015.8 hPa | 0 mm | - | 1035 W/m² | - |
| 1777227015 | 18.89° C | 64% | 1016 hPa | 0 mm | - | 998 W/m² | - |
| 1777226115 | 18.89° C | 66% | 1016.3 hPa | 0 mm | - | 735 W/m² | - |
| 1777224914 | 18.33° C | 67% | 1016.7 hPa | 0 mm | - | 865 W/m² | - |
| 1777224314 | 17.22° C | 68% | 1016.9 hPa | 0 mm | - | 483 W/m² | - |
| 1777221615 | 16.67° C | 72% | 1017.2 hPa | 0 mm | - | 838 W/m² | - |
| 1777219814 | 15.56° C | 73% | 1017.3 hPa | 0 mm | - | 893 W/m² | - |
| 1777218314 | 14.44° C | 78% | 1017.5 hPa | 0 mm | - | 715 W/m² | - |
| 1777213214 | 12.22° C | 85% | 1017.2 hPa | 0 mm | - | 192 W/m² | - |
| 1777211714 | 11.67° C | 86% | 1017.4 hPa | 0 mm | - | 199 W/m² | - |
| 1777211415 | 11.67° C | 87% | 1017.3 hPa | 0 mm | - | 169 W/m² | - |
| 1777210513 | 11.67° C | 88% | 1017.3 hPa | 0 mm | - | 193 W/m² | - |
| 1777203913 | 8.33° C | 94% | 1016.9 hPa | 0 mm | - | 30 W/m² | - |
| 1777201514 | 7.78° C | 93% | 1016.7 hPa | 0 mm | - | 7 W/m² | - |
| 1777192214 | 7.78° C | 90% | 1015.7 hPa | 0 mm | - | 0 W/m² | - |
| 1777190114 | 7.78° C | 89% | 1015.4 hPa | 0 mm | - | 0 W/m² | - |
| 1777188614 | 8.33° C | 89% | 1015.2 hPa | 0 mm | - | 0 W/m² | - |
| 1777187415 | 8.33° C | 87% | 1015.1 hPa | 0 mm | - | 0 W/m² | - |
| 1777186213 | 8.33° C | 87% | 1014.7 hPa | 0 mm | - | 0 W/m² | - |
* Rain latest hour (hover to see other rain measurements)
** Current wind speed in m/s (hover to see current wind gust speed)